Time;durP1;ratioP1;P1;durP2;ratioP2;P2;SDS_P1;SDS_P2;PMS_P1;PMS_P2;Temp;Humidity;BMP_temperature;BMP_pressure;BME280_temperature;BME280_humidity;BME280_pressure;Samples;Min_cycle;Max_cycle;Signal;HPM_P1;HPM_P2
2023/12/02 00:01:55;;;;;;;;;;;;;;;-1.43;90.78;101030.00;5002158;28;20276;-62
2023/12/02 00:04:20;;;;;;;;;;;;;;;-1.41;90.63;101032.50;5004279;28;19921;-61
2023/12/02 00:06:45;;;;;;;;;;;;;;;-1.43;90.53;101047.38;5004002;28;19918;-61
2023/12/02 00:09:10;;;;;;;;;;;;;;;-1.44;90.55;101046.56;5002195;28;19956;-61
2023/12/02 00:11:36;;;;;;;;;;;;;;;-1.44;90.56;101048.31;5003690;28;19943;-61
2023/12/02 00:14:01;;;;;;;;;;;;;;;-1.45;90.67;101050.06;5003480;28;20341;-61
2023/12/02 00:16:26;;;;;;;;;;;;;;;-1.44;90.69;101040.50;5002097;28;19921;-61
2023/12/02 00:18:51;;;;;;;;;;;;;;;-1.43;90.52;101044.78;5002896;28;19917;-61
2023/12/02 00:21:16;;;;;;;;;;;;;;;-1.42;90.72;101041.25;5004895;28;19917;-61
2023/12/02 00:23:42;;;;;;;;;;;;;;;-1.42;90.62;101036.88;5002906;28;19953;-61
2023/12/02 00:26:08;;;;;;;;;;;;;;;-1.39;90.45;101043.69;5004756;28;19924;-62
2023/12/02 00:28:33;;;;;;;;;;;;;;;-1.40;90.73;101035.03;5003414;28;20030;-62
2023/12/02 00:30:58;;;;;;;;;;;;;;;-1.40;90.66;101026.38;5004141;28;19917;-62
2023/12/02 00:33:23;;;;;;;;;;;;;;;-1.41;90.46;101037.72;5003870;28;20008;-61
2023/12/02 00:35:48;;;;;;;;;;;;;;;-1.41;90.40;101035.13;4999892;28;19917;-61
2023/12/02 00:38:14;;;;;;;;;;;;;;;-1.43;90.50;101031.75;5004536;28;19917;-62
2023/12/02 00:40:39;;;;;;;;;;;;;;;-1.43;90.34;101036.97;4998302;28;19964;-62
2023/12/02 00:43:04;;;;;;;;;;;;;;;-1.43;90.16;101040.41;5005748;28;19909;-61
2023/12/02 00:45:30;;;;;;;;;;;;;;;-1.43;90.23;101039.56;5000772;28;19917;-62
2023/12/02 00:47:55;;;;;;;;;;;;;;;-1.43;90.38;101036.97;5002663;28;20433;-62
2023/12/02 00:50:20;;;;;;;;;;;;;;;-1.42;90.25;101028.22;4994994;28;19961;-62
2023/12/02 00:52:45;;;;;;;;;;;;;;;-1.40;90.37;101028.97;5005038;28;19917;-61
2023/12/02 00:55:11;;;;;;;;;;;;;;;-1.40;90.18;101039.41;5001418;28;20893;-61
2023/12/02 00:57:36;;;;;;;;;;;;;;;-1.41;90.28;101035.94;5004450;28;19921;-61
2023/12/02 01:00:03;;;;;;;;;;;;;;;-1.43;90.11;101031.75;4999609;28;20044;-61
2023/12/02 01:02:29;;;;;;;;;;;;;;;-1.43;90.41;101034.38;5002250;28;20294;-61
2023/12/02 01:04:55;;;;;;;;;;;;;;;-1.45;90.33;101029.22;5000184;28;19921;-61
2023/12/02 01:07:20;;;;;;;;;;;;;;;-1.43;90.13;101031.75;5003853;28;20015;-62
2023/12/02 01:09:45;;;;;;;;;;;;;;;-1.44;90.20;101022.28;5001183;28;20581;-62
2023/12/02 01:12:10;;;;;;;;;;;;;;;-1.49;90.03;101016.47;5004028;28;20531;-62
2023/12/02 01:14:36;;;;;;;;;;;;;;;-1.52;90.09;101014.03;5000292;28;20375;-61
2023/12/02 01:17:01;;;;;;;;;;;;;;;-1.53;89.85;101020.19;5002020;28;19917;-61
2023/12/02 01:19:26;;;;;;;;;;;;;;;-1.54;90.02;101016.75;5002748;28;19978;-61
2023/12/02 01:21:51;;;;;;;;;;;;;;;-1.52;90.23;101027.06;5002210;28;20736;-61
2023/12/02 01:24:17;;;;;;;;;;;;;;;-1.54;90.04;101028.91;5002409;28;19913;-61
2023/12/02 01:26:42;;;;;;;;;;;;;;;-1.54;89.99;101028.91;5000676;28;20474;-61
2023/12/02 01:29:07;;;;;;;;;;;;;;;-1.53;90.11;101028.00;4996131;28;19925;-62
2023/12/02 01:31:33;;;;;;;;;;;;;;;-1.53;89.95;101025.38;5001069;28;19962;-61
2023/12/02 01:33:58;;;;;;;;;;;;;;;-1.53;90.00;101036.66;5000569;28;19917;-62
2023/12/02 01:36:23;;;;;;;;;;;;;;;-1.53;90.04;101039.25;4997193;28;19913;-62
2023/12/02 01:38:48;;;;;;;;;;;;;;;-1.52;90.23;101043.53;5002276;28;19928;-61
2023/12/02 01:41:13;;;;;;;;;;;;;;;-1.53;90.02;101043.63;4983323;28;19917;-61
2023/12/02 01:43:39;;;;;;;;;;;;;;;-1.54;89.99;101049.75;5000947;28;19917;-61
2023/12/02 01:46:04;;;;;;;;;;;;;;;-1.56;90.09;101047.25;4996309;28;19921;-61
2023/12/02 01:48:32;;;;;;;;;;;;;;;-1.57;90.10;101053.38;5001270;28;19943;-62
2023/12/02 01:50:57;;;;;;;;;;;;;;;-1.59;90.19;101055.22;5001524;28;19922;-61
2023/12/02 01:53:23;;;;;;;;;;;;;;;-1.61;90.08;101059.69;5001638;28;19917;-62
2023/12/02 01:55:48;;;;;;;;;;;;;;;-1.62;90.14;101066.66;4998957;28;19920;-61
2023/12/02 01:58:13;;;;;;;;;;;;;;;-1.61;90.01;101070.09;5000734;28;19917;-61
2023/12/02 02:00:38;;;;;;;;;;;;;;;-1.62;90.21;101050.19;4999989;28;19921;-61
2023/12/02 02:03:04;;;;;;;;;;;;;;;-1.60;90.22;101061.38;4998501;28;19924;-61
2023/12/02 02:05:29;;;;;;;;;;;;;;;-1.59;90.20;101063.88;4997994;28;19964;-62
2023/12/02 02:07:54;;;;;;;;;;;;;;;-1.59;90.27;101066.47;4998905;28;19918;-61
2023/12/02 02:10:20;;;;;;;;;;;;;;;-1.60;90.16;101067.41;4995058;28;19952;-61
2023/12/02 02:12:46;;;;;;;;;;;;;;;-1.64;90.10;101065.91;4999906;28;19923;-61
2023/12/02 02:15:11;;;;;;;;;;;;;;;-1.64;90.03;101075.50;4999302;28;19917;-61
2023/12/02 02:17:36;;;;;;;;;;;;;;;-1.65;90.19;101066.84;5000207;28;19965;-61
2023/12/02 02:20:02;;;;;;;;;;;;;;;-1.68;90.06;101069.63;5001712;28;20479;-61
2023/12/02 02:22:28;;;;;;;;;;;;;;;-1.70;90.00;101066.25;5002078;28;20526;-61
2023/12/02 02:24:54;;;;;;;;;;;;;;;-1.71;89.84;101062.00;5002273;28;19918;-61
2023/12/02 02:27:19;;;;;;;;;;;;;;;-1.71;90.02;101067.19;5000034;28;19922;-61
2023/12/02 02:29:45;;;;;;;;;;;;;;;-1.70;90.02;101068.88;5000481;28;19928;-61
2023/12/02 02:32:10;;;;;;;;;;;;;;;-1.68;90.15;101067.00;5000043;28;19944;-61
2023/12/02 02:34:35;;;;;;;;;;;;;;;-1.69;90.34;101065.34;4999509;28;20005;-62
2023/12/02 02:37:00;;;;;;;;;;;;;;;-1.68;90.22;101071.38;5003349;28;20330;-62
2023/12/02 02:39:25;;;;;;;;;;;;;;;-1.68;90.35;101067.00;5006014;28;19983;-61
2023/12/02 02:41:51;;;;;;;;;;;;;;;-1.68;90.35;101061.81;5002646;28;20780;-61
2023/12/02 02:44:16;;;;;;;;;;;;;;;-1.66;90.39;101065.16;5005031;28;20507;-61
2023/12/02 02:46:42;;;;;;;;;;;;;;;-1.65;90.17;101060.78;5003748;28;21375;-61
2023/12/02 02:49:07;;;;;;;;;;;;;;;-1.66;90.46;101065.16;5001766;28;20409;-61
2023/12/02 02:51:32;;;;;;;;;;;;;;;-1.65;90.31;101071.22;5002374;28;19924;-61
2023/12/02 02:53:57;;;;;;;;;;;;;;;-1.65;90.25;101077.25;5001538;28;20406;-61
2023/12/02 02:56:23;;;;;;;;;;;;;;;-1.64;90.53;101076.31;5003415;28;19917;-61
2023/12/02 02:58:48;;;;;;;;;;;;;;;-1.62;90.34;101073.63;5003027;28;19913;-61
2023/12/02 03:01:13;;;;;;;;;;;;;;;-1.61;90.43;101075.31;5004169;28;19920;-62
2023/12/02 03:03:39;;;;;;;;;;;;;;;-1.61;90.56;101081.34;5004357;28;19929;-61
2023/12/02 03:06:05;;;;;;;;;;;;;;;-1.60;90.36;101084.81;5004461;28;20522;-61
2023/12/02 03:08:30;;;;;;;;;;;;;;;-1.60;90.63;101088.25;5004680;28;19960;-61
2023/12/02 03:10:55;;;;;;;;;;;;;;;-1.58;90.46;101090.75;5002390;28;19920;-61
2023/12/02 03:13:20;;;;;;;;;;;;;;;-1.58;90.48;101080.34;5000566;28;20347;-61
2023/12/02 03:15:45;;;;;;;;;;;;;;;-1.57;90.38;101082.03;5004080;28;19921;-61
2023/12/02 03:18:11;;;;;;;;;;;;;;;-1.59;90.62;101074.28;5004924;28;19929;-61
2023/12/02 03:20:36;;;;;;;;;;;;;;;-1.59;90.51;101073.47;5001841;28;19928;-61
2023/12/02 03:23:01;;;;;;;;;;;;;;;-1.59;90.61;101079.50;4997600;28;19923;-61
2023/12/02 03:25:26;;;;;;;;;;;;;;;-1.57;90.61;101076.81;5002269;28;19921;-61
2023/12/02 03:27:51;;;;;;;;;;;;;;;-1.56;90.57;101079.31;5004599;28;19921;-61
2023/12/02 03:30:17;;;;;;;;;;;;;;;-1.54;90.65;101075.78;5003616;28;19917;-62
2023/12/02 03:32:42;;;;;;;;;;;;;;;-1.52;90.72;101081.75;5004618;28;19917;-61
2023/12/02 03:35:08;;;;;;;;;;;;;;;-1.52;90.88;101071.34;5000743;28;20610;-61
2023/12/02 03:37:34;;;;;;;;;;;;;;;-1.55;90.57;101072.34;5004422;28;19917;-61
2023/12/02 03:39:59;;;;;;;;;;;;;;;-1.59;90.35;101065.66;5002439;28;19921;-61
2023/12/02 03:42:25;;;;;;;;;;;;;;;-1.63;90.21;101095.38;5000830;28;19922;-62
2023/12/02 03:44:50;;;;;;;;;;;;;;;-1.63;90.34;101083.22;5003889;28;20302;-61
2023/12/02 03:47:15;;;;;;;;;;;;;;;-1.62;90.49;101091.84;5002256;28;19921;-61
2023/12/02 03:49:40;;;;;;;;;;;;;;;-1.61;90.45;101096.97;5003094;28;19932;-61
2023/12/02 03:52:05;;;;;;;;;;;;;;;-1.64;90.43;101099.75;5005736;28;19921;-61
2023/12/02 03:54:31;;;;;;;;;;;;;;;-1.62;90.36;101095.31;5003611;28;19917;-61
2023/12/02 03:56:56;;;;;;;;;;;;;;;-1.62;90.66;101087.50;5003480;28;19948;-62
2023/12/02 03:59:22;;;;;;;;;;;;;;;-1.63;90.57;101090.19;5002541;28;19923;-61
2023/12/02 04:01:47;;;;;;;;;;;;;;;-1.65;90.52;101095.47;5003828;28;19933;-61
2023/12/02 04:04:13;;;;;;;;;;;;;;;-1.66;90.62;101101.63;5004170;28;19987;-61
2023/12/02 04:06:38;;;;;;;;;;;;;;;-1.68;90.54;101097.41;5004471;28;20472;-61
2023/12/02 04:09:05;;;;;;;;;;;;;;;-1.71;90.44;101105.41;5002905;28;19917;-61
2023/12/02 04:11:30;;;;;;;;;;;;;;;-1.71;90.33;101110.59;5004596;28;19917;-61
2023/12/02 04:13:55;;;;;;;;;;;;;;;-1.69;90.63;101111.38;5000605;28;20426;-61
2023/12/02 04:16:21;;;;;;;;;;;;;;;-1.68;90.62;101115.63;5000050;28;20107;-61
2023/12/02 04:18:46;;;;;;;;;;;;;;;-1.69;90.65;101114.81;5004001;28;21884;-61
2023/12/02 04:21:11;;;;;;;;;;;;;;;-1.66;90.82;101124.22;4999122;28;19918;-61
2023/12/02 04:23:37;;;;;;;;;;;;;;;-1.66;90.76;101116.41;5004529;28;20401;-62
2023/12/02 04:26:02;;;;;;;;;;;;;;;-1.66;90.72;101114.63;5002757;28;20406;-61
2023/12/02 04:28:27;;;;;;;;;;;;;;;-1.64;90.95;101110.19;5005283;28;19956;-61
2023/12/02 04:30:52;;;;;;;;;;;;;;;-1.64;90.94;101107.56;4995642;28;20415;-61
2023/12/02 04:33:18;;;;;;;;;;;;;;;-1.66;90.87;101117.22;5005399;28;19924;-61
2023/12/02 04:35:43;;;;;;;;;;;;;;;-1.66;90.89;101121.59;4999323;28;19917;-62
2023/12/02 04:38:08;;;;;;;;;;;;;;;-1.67;90.90;101122.53;5003189;28;19917;-61
2023/12/02 04:40:33;;;;;;;;;;;;;;;-1.70;91.07;101122.69;5003636;28;19920;-60
2023/12/02 04:42:59;;;;;;;;;;;;;;;-1.71;91.15;101118.41;5003063;28;20098;-61
2023/12/02 04:45:24;;;;;;;;;;;;;;;-1.73;91.01;101120.28;5002400;28;20004;-61
2023/12/02 04:47:49;;;;;;;;;;;;;;;-1.74;90.85;101122.00;5002608;28;19968;-61
2023/12/02 04:50:15;;;;;;;;;;;;;;;-1.75;91.02;101128.13;5001601;28;19921;-61
2023/12/02 04:52:40;;;;;;;;;;;;;;;-1.76;90.91;101117.81;4997429;28;19924;-61
2023/12/02 04:55:06;;;;;;;;;;;;;;;-1.77;90.88;101127.38;5005434;28;20379;-61
2023/12/02 04:57:31;;;;;;;;;;;;;;;-1.78;90.83;101143.94;5002512;28;19913;-61
2023/12/02 04:59:56;;;;;;;;;;;;;;;-1.79;91.07;101137.03;5003284;28;19960;-60
2023/12/02 05:02:22;;;;;;;;;;;;;;;-1.82;90.73;101147.63;4997252;28;19940;-61
2023/12/02 05:04:47;;;;;;;;;;;;;;;-1.83;90.79;101152.91;5002677;28;19947;-61
2023/12/02 05:07:13;;;;;;;;;;;;;;;-1.83;91.00;101148.56;5003595;28;19921;-61
2023/12/02 05:09:38;;;;;;;;;;;;;;;-1.82;90.85;101144.19;5002293;28;20008;-61
2023/12/02 05:12:04;;;;;;;;;;;;;;;-1.82;90.98;101145.03;5000027;28;19913;-61
2023/12/02 05:14:29;;;;;;;;;;;;;;;-1.82;90.85;101146.78;5001957;28;19913;-61
2023/12/02 05:16:54;;;;;;;;;;;;;;;-1.86;90.78;101143.50;5000269;28;19921;-61
2023/12/02 05:19:19;;;;;;;;;;;;;;;-1.90;90.85;101144.63;5002543;28;19996;-61
2023/12/02 05:21:45;;;;;;;;;;;;;;;-1.91;90.84;101158.56;4995853;28;20038;-61
2023/12/02 05:24:10;;;;;;;;;;;;;;;-1.90;90.71;101155.84;5001571;28;20403;-61
2023/12/02 05:26:35;;;;;;;;;;;;;;;-1.91;90.88;101155.94;5001122;28;19921;-61
2023/12/02 05:29:01;;;;;;;;;;;;;;;-1.93;91.05;101152.59;5001549;28;20094;-61
2023/12/02 05:31:26;;;;;;;;;;;;;;;-2.01;90.83;101146.97;5001294;28;19940;-61
2023/12/02 05:33:52;;;;;;;;;;;;;;;-2.08;90.63;101145.59;5002557;28;20242;-61
2023/12/02 05:36:17;;;;;;;;;;;;;;;-2.10;90.80;101161.28;5002633;28;19929;-61
2023/12/02 05:38:42;;;;;;;;;;;;;;;-2.07;90.98;101186.28;4999570;28;19974;-61
2023/12/02 05:41:07;;;;;;;;;;;;;;;-2.04;91.25;101183.53;4999834;28;19917;-61
2023/12/02 05:43:32;;;;;;;;;;;;;;;-2.01;91.44;101189.44;5001143;28;20008;-61
2023/12/02 05:45:58;;;;;;;;;;;;;;;-1.95;91.34;101188.25;5000856;28;19921;-61
2023/12/02 05:48:23;;;;;;;;;;;;;;;-1.95;91.29;101183.06;5002504;28;20047;-61
2023/12/02 05:50:48;;;;;;;;;;;;;;;-1.94;91.38;101182.13;5001428;28;19972;-62
2023/12/02 05:53:13;;;;;;;;;;;;;;;-1.94;91.57;101182.13;5000066;28;19943;-61
2023/12/02 05:55:39;;;;;;;;;;;;;;;-1.95;91.44;101181.31;4998232;28;19921;-61
2023/12/02 05:58:04;;;;;;;;;;;;;;;-1.94;91.41;101172.56;4999561;28;20405;-61
2023/12/02 06:00:29;;;;;;;;;;;;;;;-1.97;91.28;101174.50;4999533;28;19917;-61
2023/12/02 06:02:54;;;;;;;;;;;;;;;-2.00;91.26;101178.09;5000152;28;20282;-61
2023/12/02 06:05:20;;;;;;;;;;;;;;;-2.00;91.23;101174.66;4999532;28;20058;-61
2023/12/02 06:07:45;;;;;;;;;;;;;;;-2.04;91.15;101180.94;5000800;28;19924;-62
2023/12/02 06:10:11;;;;;;;;;;;;;;;-2.06;91.27;101181.00;5000748;28;20008;-62
2023/12/02 06:12:36;;;;;;;;;;;;;;;-2.08;91.31;101187.22;4998810;28;19923;-61
2023/12/02 06:15:02;;;;;;;;;;;;;;;-2.13;91.24;101189.22;5002824;28;19918;-61
2023/12/02 06:17:28;;;;;;;;;;;;;;;-2.14;91.16;101187.56;5000349;28;19921;-61
2023/12/02 06:19:53;;;;;;;;;;;;;;;-2.13;91.29;101184.03;4994654;28;19913;-61
2023/12/02 06:22:18;;;;;;;;;;;;;;;-2.14;91.12;101187.56;4996342;28;19913;-61
2023/12/02 06:24:43;;;;;;;;;;;;;;;-2.14;91.09;101192.75;4998930;28;19925;-61
2023/12/02 06:27:08;;;;;;;;;;;;;;;-2.12;91.38;101193.50;5000165;28;19921;-61
2023/12/02 06:29:34;;;;;;;;;;;;;;;-2.12;91.29;101204.75;4998570;28;20398;-61
2023/12/02 06:31:59;;;;;;;;;;;;;;;-2.19;91.29;101201.66;5002303;28;19917;-61
2023/12/02 06:34:24;;;;;;;;;;;;;;;-2.26;91.23;101207.25;4992570;28;20024;-62
2023/12/02 06:36:49;;;;;;;;;;;;;;;-2.29;91.30;101208.25;4998359;28;19968;-62
2023/12/02 06:39:15;;;;;;;;;;;;;;;-2.26;91.22;101205.50;4998215;28;20383;-61
2023/12/02 06:41:43;;;;;;;;;;;;;;;-2.24;91.66;101218.41;5002404;28;19917;-62
2023/12/02 06:44:09;;;;;;;;;;;;;;;-2.24;91.49;101216.66;4992126;28;20426;-61
2023/12/02 06:46:34;;;;;;;;;;;;;;;-2.21;91.66;101223.47;4998853;28;19917;-61
2023/12/02 06:48:59;;;;;;;;;;;;;;;-2.20;91.72;101215.56;4995705;28;19913;-61
2023/12/02 06:51:28;;;;;;;;;;;;;;;-2.22;91.64;101219.19;5000035;28;20594;-61
2023/12/02 06:53:53;;;;;;;;;;;;;;;-2.24;91.72;101227.06;4995585;28;19922;-61
2023/12/02 06:56:22;;;;;;;;;;;;;;;-2.21;91.79;101226.06;4999325;28;19917;-61
2023/12/02 06:58:49;;;;;;;;;;;;;;;-2.24;91.94;101229.66;4995847;28;20476;-61
2023/12/02 07:01:31;;;;;;;;;;;;;;;-2.32;91.78;101217.94;4998312;28;19917;-61
2023/12/02 07:03:56;;;;;;;;;;;;;;;-2.30;91.86;101239.56;4997452;28;19923;-61
2023/12/02 07:06:22;;;;;;;;;;;;;;;-2.33;91.90;101234.47;4999429;28;20730;-61
2023/12/02 07:08:48;;;;;;;;;;;;;;;-2.34;92.15;101238.00;4992492;28;20417;-61
2023/12/02 07:11:13;;;;;;;;;;;;;;;-2.35;92.34;101242.34;5001225;28;19923;-61
2023/12/02 07:13:39;;;;;;;;;;;;;;;-2.37;92.29;101248.56;4997204;28;19918;-61
2023/12/02 07:16:04;;;;;;;;;;;;;;;-2.38;92.47;101249.47;5001759;28;20013;-61
2023/12/02 07:18:30;;;;;;;;;;;;;;;-2.39;92.58;101260.81;5002929;28;19962;-61
2023/12/02 07:20:55;;;;;;;;;;;;;;;-2.40;92.71;101262.56;5003503;28;20011;-61
2023/12/02 07:23:20;;;;;;;;;;;;;;;-2.39;93.00;101256.44;4994450;28;19921;-61
2023/12/02 07:25:45;;;;;;;;;;;;;;;-2.40;93.08;101253.91;5003529;28;19921;-61
2023/12/02 07:28:11;;;;;;;;;;;;;;;-2.42;93.13;101259.19;5001386;28;20430;-61
2023/12/02 07:30:36;;;;;;;;;;;;;;;-2.44;93.21;101255.00;5001992;28;19913;-61
2023/12/02 07:33:01;;;;;;;;;;;;;;;-2.49;93.38;101260.44;4997934;28;19921;-61
2023/12/02 07:35:26;;;;;;;;;;;;;;;-2.49;93.31;101273.44;4996352;28;19920;-61
2023/12/02 07:37:52;;;;;;;;;;;;;;;-2.51;93.41;101270.06;4994426;28;20695;-60
2023/12/02 07:40:17;;;;;;;;;;;;;;;-2.52;93.47;101277.03;5000154;28;19921;-61
2023/12/02 07:42:42;;;;;;;;;;;;;;;-2.51;93.59;101277.88;4996845;28;19917;-61
2023/12/02 07:45:07;;;;;;;;;;;;;;;-2.53;93.61;101283.16;5003408;28;19928;-61
2023/12/02 07:47:33;;;;;;;;;;;;;;;-2.53;93.53;101277.09;5001359;28;19921;-61
2023/12/02 07:49:58;;;;;;;;;;;;;;;-2.55;93.55;101281.53;5002527;28;19914;-61
2023/12/02 07:52:23;;;;;;;;;;;;;;;-2.55;93.53;101271.16;5000897;28;19928;-61
2023/12/02 07:54:48;;;;;;;;;;;;;;;-2.55;93.56;101274.59;4999632;28;19939;-61
2023/12/02 07:57:14;;;;;;;;;;;;;;;-2.51;93.51;101280.47;4996534;28;20027;-62
2023/12/02 07:59:39;;;;;;;;;;;;;;;-2.48;93.76;101288.13;5002019;28;19924;-61
2023/12/02 08:02:05;;;;;;;;;;;;;;;-2.46;93.46;101296.69;4999176;28;19917;-61
2023/12/02 08:04:30;;;;;;;;;;;;;;;-2.42;93.50;101306.00;4997957;28;19921;-61
2023/12/02 08:06:55;;;;;;;;;;;;;;;-2.38;93.44;101302.34;4998630;28;19926;-61
2023/12/02 08:09:20;;;;;;;;;;;;;;;-2.35;93.61;101315.19;4998379;28;20657;-61
2023/12/02 08:11:46;;;;;;;;;;;;;;;-2.29;93.54;101316.66;4997296;28;19917;-61
2023/12/02 08:14:11;;;;;;;;;;;;;;;-2.21;93.69;101319.72;5002697;28;19921;-61
2023/12/02 08:16:36;;;;;;;;;;;;;;;-2.14;93.76;101325.44;4997921;28;19924;-61
2023/12/02 08:19:01;;;;;;;;;;;;;;;-2.10;94.01;101326.97;5002475;28;19917;-61
2023/12/02 08:21:27;;;;;;;;;;;;;;;-2.09;93.90;101328.66;4996559;28;19947;-61
2023/12/02 08:23:52;;;;;;;;;;;;;;;-2.08;93.72;101335.53;4979155;28;19947;-62
2023/12/02 08:26:17;;;;;;;;;;;;;;;-2.08;93.83;101333.75;4999385;28;20394;-61
2023/12/02 08:28:46;;;;;;;;;;;;;;;-2.05;94.05;101335.38;4993657;28;19925;-61
2023/12/02 08:31:11;;;;;;;;;;;;;;;-2.03;93.88;101338.72;4999802;28;19913;-62
2023/12/02 08:33:37;;;;;;;;;;;;;;;-2.01;93.88;101339.53;4995684;28;20342;-61
2023/12/02 08:36:02;;;;;;;;;;;;;;;-1.99;93.94;101337.69;4995616;28;19920;-60
2023/12/02 08:38:27;;;;;;;;;;;;;;;-1.99;93.85;101340.28;4996908;28;19921;-61
2023/12/02 08:40:53;;;;;;;;;;;;;;;-2.01;93.98;101352.53;4997358;28;20593;-61
2023/12/02 08:43:18;;;;;;;;;;;;;;;-2.02;94.03;101356.91;4999595;28;19983;-61
2023/12/02 08:45:43;;;;;;;;;;;;;;;-2.06;94.04;101352.75;4995421;28;20020;-61
2023/12/02 08:48:08;;;;;;;;;;;;;;;-2.08;94.15;101359.78;5003013;28;19921;-61
2023/12/02 08:50:33;;;;;;;;;;;;;;;-2.11;94.08;101353.91;4998638;28;19918;-61
2023/12/02 08:52:59;;;;;;;;;;;;;;;-2.11;94.10;101356.50;5000073;28;20613;-61
2023/12/02 08:55:24;;;;;;;;;;;;;;;-2.08;94.16;101353.75;4991125;28;19951;-61
2023/12/02 08:57:49;;;;;;;;;;;;;;;-2.02;94.35;101361.25;4987097;28;20016;-62
2023/12/02 09:00:15;;;;;;;;;;;;;;;-1.96;94.79;101351.38;4992002;28;19917;-62
2023/12/02 09:02:40;;;;;;;;;;;;;;;-1.90;95.10;101350.22;4993404;28;20013;-62
2023/12/02 09:05:05;;;;;;;;;;;;;;;-1.85;95.33;101353.44;4993838;28;19913;-61
2023/12/02 09:07:30;;;;;;;;;;;;;;;-1.80;95.84;101346.22;4989895;28;19917;-62
2023/12/02 09:09:56;;;;;;;;;;;;;;;-1.76;95.56;101345.13;4999639;28;19913;-61
2023/12/02 09:12:21;;;;;;;;;;;;;;;-1.76;95.55;101349.50;4994830;28;19925;-62
2023/12/02 09:14:59;;;;;;;;;;;;;;;-1.78;95.45;101352.19;4998894;28;19917;-61
2023/12/02 09:17:43;;;;;;;;;;;;;;;-1.74;95.36;101358.91;4998312;28;19944;-61
2023/12/02 09:20:26;;;;;;;;;;;;;;;-1.68;95.55;101368.19;4999540;28;19938;-62
2023/12/02 09:22:51;;;;;;;;;;;;;;;-1.64;95.53;101364.50;4997519;28;19921;-62
2023/12/02 09:25:27;;;;;;;;;;;;;;;-1.60;95.44;101374.69;4999027;28;19917;-62
2023/12/02 09:28:05;;;;;;;;;;;;;;;-1.57;95.31;101368.47;4999748;28;20496;-62
2023/12/02 09:30:30;;;;;;;;;;;;;;;-1.47;95.41;101374.03;4996910;28;19963;-62
2023/12/02 09:32:56;;;;;;;;;;;;;;;-1.39;95.48;101372.72;4997581;28;19925;-62
2023/12/02 09:35:21;;;;;;;;;;;;;;;-1.34;95.33;101364.66;4995659;28;20443;-61
2023/12/02 09:37:54;;;;;;;;;;;;;;;-1.29;94.98;101365.25;5000576;28;20272;-62
2023/12/02 09:40:19;;;;;;;;;;;;;;;-1.26;94.82;101365.91;5002485;28;19964;-62
2023/12/02 09:42:46;;;;;;;;;;;;;;;-1.19;94.81;101374.25;4999174;28;19920;-62
2023/12/02 09:45:11;;;;;;;;;;;;;;;-1.12;94.81;101377.38;4999227;28;19913;-62
2023/12/02 09:47:41;;;;;;;;;;;;;;;-1.04;94.77;101370.00;4994466;28;19932;-62
2023/12/02 09:50:07;;;;;;;;;;;;;;;-1.01;94.59;101368.06;5000888;28;19921;-62
2023/12/02 09:52:42;;;;;;;;;;;;;;;-0.98;94.37;101377.47;5001069;28;20012;-62
2023/12/02 09:55:27;;;;;;;;;;;;;;;-1.00;94.07;101381.91;4994618;28;20044;-61
2023/12/02 09:58:11;;;;;;;;;;;;;;;-1.02;93.96;101392.44;4999025;28;19924;-62
2023/12/02 10:00:48;;;;;;;;;;;;;;;-1.00;94.17;101387.13;4996114;28;19917;-62
2023/12/02 10:03:32;;;;;;;;;;;;;;;-0.92;93.97;101382.34;4996155;28;20000;-62
2023/12/02 10:06:19;;;;;;;;;;;;;;;-0.80;94.07;101386.91;4998794;28;19917;-61
2023/12/02 10:08:57;;;;;;;;;;;;;;;-0.72;94.29;101396.91;4998873;28;19928;-61
2023/12/02 10:11:30;;;;;;;;;;;;;;;-0.64;94.03;101395.53;4995423;28;19917;-62
2023/12/02 10:13:59;;;;;;;;;;;;;;;-0.65;94.00;101399.06;4999763;28;19968;-61
2023/12/02 10:16:27;;;;;;;;;;;;;;;-0.63;93.93;101399.00;4999171;28;19956;-61
2023/12/02 10:18:53;;;;;;;;;;;;;;;-0.68;93.63;101407.06;4999076;28;20361;-62
2023/12/02 10:21:20;;;;;;;;;;;;;;;-0.67;93.64;101406.16;4997457;28;20291;-61
2023/12/02 10:24:05;;;;;;;;;;;;;;;-0.71;93.61;101395.97;4997958;28;20053;-62
2023/12/02 10:26:38;;;;;;;;;;;;;;;-0.73;93.76;101403.88;5000985;28;19924;-62
2023/12/02 10:29:24;;;;;;;;;;;;;;;-0.72;93.61;101399.50;4997018;28;20296;-61
2023/12/02 10:32:08;;;;;;;;;;;;;;;-0.73;93.82;101397.81;5000511;28;19913;-62
2023/12/02 10:34:37;;;;;;;;;;;;;;;-0.75;93.73;101404.91;4999110;28;19996;-62
2023/12/02 10:37:03;;;;;;;;;;;;;;;-0.71;93.58;101404.63;4996846;28;20556;-61
2023/12/02 10:39:39;;;;;;;;;;;;;;;-0.70;93.71;101392.44;4993340;28;19918;-61
2023/12/02 10:42:04;;;;;;;;;;;;;;;-0.69;93.70;101394.97;4995636;28;19924;-61
2023/12/02 10:44:31;;;;;;;;;;;;;;;-0.67;93.64;101398.31;4999159;28;19914;-62
2023/12/02 10:46:57;;;;;;;;;;;;;;;-0.60;93.73;101398.81;5003085;28;19917;-62
2023/12/02 10:49:22;;;;;;;;;;;;;;;-0.58;93.77;101396.97;5001368;28;19940;-62
2023/12/02 10:51:49;;;;;;;;;;;;;;;-0.53;93.66;101394.13;5004189;28;20051;-62
2023/12/02 10:54:16;;;;;;;;;;;;;;;-0.49;93.65;101393.03;5004175;28;19913;-62
2023/12/02 10:56:45;;;;;;;;;;;;;;;-0.51;93.75;101394.88;5006230;28;19917;-62
2023/12/02 10:59:10;;;;;;;;;;;;;;;-0.53;93.37;101400.19;5004720;28;19975;-62
2023/12/02 11:01:35;;;;;;;;;;;;;;;-0.51;93.50;101393.09;5004642;28;19913;-62
2023/12/02 11:04:05;;;;;;;;;;;;;;;-0.49;93.59;101385.19;5005637;28;20425;-61
2023/12/02 11:06:31;;;;;;;;;;;;;;;-0.48;93.44;101392.09;5004884;28;19917;-62
2023/12/02 11:09:02;;;;;;;;;;;;;;;-0.47;93.16;101388.56;5003607;28;20593;-62
2023/12/02 11:11:30;;;;;;;;;;;;;;;-0.45;92.88;101382.31;4988960;28;19917;-62
2023/12/02 11:13:58;;;;;;;;;;;;;;;-0.47;92.80;101392.00;5005469;28;19960;-62
2023/12/02 11:16:53;;;;;;;;;;;;;;;-0.42;92.85;101391.75;5005137;28;19945;-62
2023/12/02 11:19:22;;;;;;;;;;;;;;;-0.42;92.69;101392.59;4983538;28;19960;-62
2023/12/02 11:22:06;;;;;;;;;;;;;;;-0.40;92.62;101397.72;5006378;28;19913;-62
2023/12/02 11:24:37;;;;;;;;;;;;;;;-0.44;92.19;101397.03;5002318;28;20014;-62
2023/12/02 11:27:31;;;;;;;;;;;;;;;-0.49;92.24;101395.63;4999464;28;20405;-62
2023/12/02 11:29:59;;;;;;;;;;;;;;;-0.52;92.14;101399.25;5002839;28;20409;-61
2023/12/02 11:32:40;;;;;;;;;;;;;;;-0.49;92.24;101399.06;5004909;28;19917;-61
2023/12/02 11:35:11;;;;;;;;;;;;;;;-0.48;92.21;101397.31;5005271;28;19963;-62
2023/12/02 11:37:37;;;;;;;;;;;;;;;-0.45;92.24;101399.75;5003053;28;20294;-61
2023/12/02 11:40:12;;;;;;;;;;;;;;;-0.41;92.56;101394.25;5002862;28;19913;-62
2023/12/02 11:42:45;;;;;;;;;;;;;;;-0.33;92.54;101391.22;5003742;28;19920;-62
2023/12/02 11:45:19;;;;;;;;;;;;;;;-0.17;93.02;101396.41;4999428;28;20672;-62
2023/12/02 11:48:00;;;;;;;;;;;;;;;-0.10;93.00;101397.72;4998802;28;20010;-62
2023/12/02 11:50:31;;;;;;;;;;;;;;;-0.08;92.53;101399.31;5001531;28;19917;-62
2023/12/02 11:53:15;;;;;;;;;;;;;;;-0.04;92.66;101398.22;5002417;28;20055;-62
2023/12/02 11:55:43;;;;;;;;;;;;;;;0.04;92.61;101400.41;4999998;28;20349;-61
2023/12/02 11:58:20;;;;;;;;;;;;;;;0.08;92.70;101398.44;5005642;28;19962;-62
2023/12/02 12:01:09;;;;;;;;;;;;;;;0.12;92.54;101397.34;5003276;28;19917;-62
2023/12/02 12:03:43;;;;;;;;;;;;;;;0.16;92.17;101407.50;4968494;28;19956;-62
2023/12/02 12:06:27;;;;;;;;;;;;;;;0.21;92.39;101400.22;4996798;28;19968;-62
2023/12/02 12:08:52;;;;;;;;;;;;;;;0.26;92.36;101395.56;5001870;28;20036;-62
2023/12/02 12:11:19;;;;;;;;;;;;;;;0.26;92.22;101398.19;4999510;28;20083;-62
2023/12/02 12:13:46;;;;;;;;;;;;;;;0.27;92.30;101399.03;5002685;28;19923;-62
2023/12/02 12:16:11;;;;;;;;;;;;;;;0.29;92.31;101399.81;5002075;28;19997;-62
2023/12/02 12:18:37;;;;;;;;;;;;;;;0.36;92.35;101406.34;5001509;28;20405;-62
2023/12/02 12:21:03;;;;;;;;;;;;;;;0.53;92.68;101405.31;5000511;28;20099;-62
2023/12/02 12:23:29;;;;;;;;;;;;;;;0.59;92.66;101407.59;5003802;28;20333;-62
2023/12/02 12:25:54;;;;;;;;;;;;;;;0.68;92.34;101414.03;5000125;28;19922;-62
2023/12/02 12:28:19;;;;;;;;;;;;;;;0.76;92.53;101410.00;5002102;28;19918;-62
2023/12/02 12:30:45;;;;;;;;;;;;;;;0.81;92.21;101405.31;5000444;28;19917;-63
2023/12/02 12:33:14;;;;;;;;;;;;;;;0.96;92.02;101410.56;5002088;28;19975;-62
2023/12/02 12:35:40;;;;;;;;;;;;;;;1.00;91.64;101410.25;5001910;28;19924;-62
2023/12/02 12:38:06;;;;;;;;;;;;;;;1.07;91.07;101406.31;5001093;28;19913;-63